sensor_id;sensor_type;location;lat;lon;timestamp;P1;durP1;ratioP1;P2;durP2;ratioP2
18806;SDS011;9531;52.030;4.380;2022-07-10T00:00:37;96.55;;;10.15;;
18806;SDS011;9531;52.030;4.380;2022-07-10T00:03:04;97.25;;;7.72;;
18806;SDS011;9531;52.030;4.380;2022-07-10T00:05:32;136.73;;;11.48;;
18806;SDS011;9531;52.030;4.380;2022-07-10T00:08:02;126.05;;;8.82;;
18806;SDS011;9531;52.030;4.380;2022-07-10T00:10:31;99.95;;;8.27;;
18806;SDS011;9531;52.030;4.380;2022-07-10T00:13:00;96.47;;;13.55;;
18806;SDS011;9531;52.030;4.380;2022-07-10T00:15:30;93.45;;;8.40;;
18806;SDS011;9531;52.030;4.380;2022-07-10T00:17:58;101.28;;;10.93;;
18806;SDS011;9531;52.030;4.380;2022-07-10T00:20:28;97.45;;;11.35;;
18806;SDS011;9531;52.030;4.380;2022-07-10T00:22:55;96.47;;;10.65;;
18806;SDS011;9531;52.030;4.380;2022-07-10T00:25:24;98.30;;;10.02;;
18806;SDS011;9531;52.030;4.380;2022-07-10T00:27:51;106.60;;;11.18;;
18806;SDS011;9531;52.030;4.380;2022-07-10T00:30:19;97.65;;;9.02;;
18806;SDS011;9531;52.030;4.380;2022-07-10T00:32:46;101.35;;;8.13;;
18806;SDS011;9531;52.030;4.380;2022-07-10T00:35:16;120.10;;;9.02;;
18806;SDS011;9531;52.030;4.380;2022-07-10T00:37:46;105.25;;;15.82;;
18806;SDS011;9531;52.030;4.380;2022-07-10T00:40:13;99.20;;;9.15;;
18806;SDS011;9531;52.030;4.380;2022-07-10T00:42:42;109.15;;;9.95;;
18806;SDS011;9531;52.030;4.380;2022-07-10T00:45:09;124.25;;;9.93;;
18806;SDS011;9531;52.030;4.380;2022-07-10T00:47:37;113.53;;;9.90;;
18806;SDS011;9531;52.030;4.380;2022-07-10T00:50:04;99.78;;;9.07;;
18806;SDS011;9531;52.030;4.380;2022-07-10T00:52:32;98.68;;;10.80;;
18806;SDS011;9531;52.030;4.380;2022-07-10T00:55:04;94.43;;;11.45;;
18806;SDS011;9531;52.030;4.380;2022-07-10T00:57:31;97.85;;;11.30;;
18806;SDS011;9531;52.030;4.380;2022-07-10T01:00:02;128.77;;;12.10;;
18806;SDS011;9531;52.030;4.380;2022-07-10T01:02:29;118.00;;;9.90;;
18806;SDS011;9531;52.030;4.380;2022-07-10T01:04:57;96.50;;;9.48;;
18806;SDS011;9531;52.030;4.380;2022-07-10T01:07:24;96.32;;;13.20;;
18806;SDS011;9531;52.030;4.380;2022-07-10T01:09:51;134.93;;;8.38;;
18806;SDS011;9531;52.030;4.380;2022-07-10T01:12:18;98.18;;;11.65;;
18806;SDS011;9531;52.030;4.380;2022-07-10T01:14:48;103.80;;;14.25;;
18806;SDS011;9531;52.030;4.380;2022-07-10T01:17:18;97.03;;;8.98;;
18806;SDS011;9531;52.030;4.380;2022-07-10T01:19:46;99.60;;;11.90;;
18806;SDS011;9531;52.030;4.380;2022-07-10T01:22:15;105.15;;;9.35;;
18806;SDS011;9531;52.030;4.380;2022-07-10T01:24:43;97.60;;;7.97;;
18806;SDS011;9531;52.030;4.380;2022-07-10T01:27:10;106.50;;;11.98;;
18806;SDS011;9531;52.030;4.380;2022-07-10T01:29:39;98.75;;;10.32;;
18806;SDS011;9531;52.030;4.380;2022-07-10T01:32:06;99.93;;;10.95;;
18806;SDS011;9531;52.030;4.380;2022-07-10T01:34:34;106.13;;;10.13;;
18806;SDS011;9531;52.030;4.380;2022-07-10T01:37:01;96.13;;;8.63;;
18806;SDS011;9531;52.030;4.380;2022-07-10T01:39:30;96.75;;;9.48;;
18806;SDS011;9531;52.030;4.380;2022-07-10T01:41:58;96.75;;;7.72;;
18806;SDS011;9531;52.030;4.380;2022-07-10T01:44:26;155.82;;;12.18;;
18806;SDS011;9531;52.030;4.380;2022-07-10T01:46:59;109.15;;;10.50;;
18806;SDS011;9531;52.030;4.380;2022-07-10T01:49:26;97.53;;;11.65;;
18806;SDS011;9531;52.030;4.380;2022-07-10T01:54:26;99.22;;;10.45;;
18806;SDS011;9531;52.030;4.380;2022-07-10T01:56:55;97.57;;;11.88;;
18806;SDS011;9531;52.030;4.380;2022-07-10T01:59:22;107.80;;;13.30;;
18806;SDS011;9531;52.030;4.380;2022-07-10T02:01:50;97.05;;;10.07;;
18806;SDS011;9531;52.030;4.380;2022-07-10T02:04:17;98.38;;;10.43;;
18806;SDS011;9531;52.030;4.380;2022-07-10T02:07:02;98.15;;;11.18;;
18806;SDS011;9531;52.030;4.380;2022-07-10T02:09:29;103.80;;;10.07;;
18806;SDS011;9531;52.030;4.380;2022-07-10T02:11:59;93.45;;;8.98;;
18806;SDS011;9531;52.030;4.380;2022-07-10T02:14:26;97.53;;;10.27;;
18806;SDS011;9531;52.030;4.380;2022-07-10T02:16:55;126.43;;;12.75;;
18806;SDS011;9531;52.030;4.380;2022-07-10T02:19:22;98.38;;;8.90;;
18806;SDS011;9531;52.030;4.380;2022-07-10T02:21:50;96.40;;;8.38;;
18806;SDS011;9531;52.030;4.380;2022-07-10T02:24:17;97.25;;;8.98;;
18806;SDS011;9531;52.030;4.380;2022-07-10T02:26:44;101.22;;;11.80;;
18806;SDS011;9531;52.030;4.380;2022-07-10T02:29:14;100.32;;;11.48;;
18806;SDS011;9531;52.030;4.380;2022-07-10T02:31:42;97.88;;;9.95;;
18806;SDS011;9531;52.030;4.380;2022-07-10T02:34:10;95.75;;;11.35;;
18806;SDS011;9531;52.030;4.380;2022-07-10T02:36:37;94.53;;;13.18;;
18806;SDS011;9531;52.030;4.380;2022-07-10T02:39:05;107.10;;;9.95;;
18806;SDS011;9531;52.030;4.380;2022-07-10T02:41:34;97.35;;;14.48;;
18806;SDS011;9531;52.030;4.380;2022-07-10T02:44:02;97.53;;;10.55;;
18806;SDS011;9531;52.030;4.380;2022-07-10T02:46:32;98.13;;;11.98;;
18806;SDS011;9531;52.030;4.380;2022-07-10T02:48:59;122.65;;;13.70;;
18806;SDS011;9531;52.030;4.380;2022-07-10T02:51:26;97.65;;;13.00;;
18806;SDS011;9531;52.030;4.380;2022-07-10T02:53:55;96.57;;;8.90;;
18806;SDS011;9531;52.030;4.380;2022-07-10T02:56:23;104.07;;;11.77;;
18806;SDS011;9531;52.030;4.380;2022-07-10T02:58:50;97.55;;;9.85;;
18806;SDS011;9531;52.030;4.380;2022-07-10T03:01:21;97.22;;;8.68;;
18806;SDS011;9531;52.030;4.380;2022-07-10T03:03:51;129.90;;;12.95;;
18806;SDS011;9531;52.030;4.380;2022-07-10T03:08:48;98.43;;;11.25;;
18806;SDS011;9531;52.030;4.380;2022-07-10T03:11:16;97.70;;;8.68;;
18806;SDS011;9531;52.030;4.380;2022-07-10T03:13:43;98.18;;;8.70;;
18806;SDS011;9531;52.030;4.380;2022-07-10T03:16:11;95.78;;;13.50;;
18806;SDS011;9531;52.030;4.380;2022-07-10T03:18:38;98.10;;;7.90;;
18806;SDS011;9531;52.030;4.380;2022-07-10T03:21:07;96.25;;;11.88;;
18806;SDS011;9531;52.030;4.380;2022-07-10T03:23:34;97.03;;;13.82;;
18806;SDS011;9531;52.030;4.380;2022-07-10T03:26:04;96.35;;;13.75;;
18806;SDS011;9531;52.030;4.380;2022-07-10T03:28:33;111.70;;;11.18;;
18806;SDS011;9531;52.030;4.380;2022-07-10T03:31:00;114.07;;;11.70;;
18806;SDS011;9531;52.030;4.380;2022-07-10T03:33:28;98.20;;;8.45;;
18806;SDS011;9531;52.030;4.380;2022-07-10T03:35:56;94.57;;;8.68;;
18806;SDS011;9531;52.030;4.380;2022-07-10T03:38:27;96.65;;;12.38;;
18806;SDS011;9531;52.030;4.380;2022-07-10T03:40:54;98.00;;;10.85;;
18806;SDS011;9531;52.030;4.380;2022-07-10T03:43:22;104.72;;;11.30;;
18806;SDS011;9531;52.030;4.380;2022-07-10T03:45:49;96.22;;;11.93;;
18806;SDS011;9531;52.030;4.380;2022-07-10T03:48:17;108.70;;;11.75;;
18806;SDS011;9531;52.030;4.380;2022-07-10T03:50:44;139.95;;;15.48;;
18806;SDS011;9531;52.030;4.380;2022-07-10T03:53:11;98.35;;;10.15;;
18806;SDS011;9531;52.030;4.380;2022-07-10T03:55:40;122.00;;;13.75;;
18806;SDS011;9531;52.030;4.380;2022-07-10T03:58:07;137.77;;;8.70;;
18806;SDS011;9531;52.030;4.380;2022-07-10T04:00:33;98.72;;;12.93;;
18806;SDS011;9531;52.030;4.380;2022-07-10T04:03:05;96.72;;;10.73;;
18806;SDS011;9531;52.030;4.380;2022-07-10T04:05:33;108.78;;;11.65;;
18806;SDS011;9531;52.030;4.380;2022-07-10T04:08:01;100.82;;;10.40;;
18806;SDS011;9531;52.030;4.380;2022-07-10T04:10:29;111.68;;;16.75;;
18806;SDS011;9531;52.030;4.380;2022-07-10T04:12:58;97.32;;;10.07;;
18806;SDS011;9531;52.030;4.380;2022-07-10T04:15:27;100.00;;;12.00;;
18806;SDS011;9531;52.030;4.380;2022-07-10T04:17:55;94.13;;;10.63;;
18806;SDS011;9531;52.030;4.380;2022-07-10T04:20:24;97.72;;;13.15;;
18806;SDS011;9531;52.030;4.380;2022-07-10T04:22:51;96.97;;;9.38;;
18806;SDS011;9531;52.030;4.380;2022-07-10T04:25:20;97.82;;;9.18;;
18806;SDS011;9531;52.030;4.380;2022-07-10T04:27:53;96.68;;;12.30;;
18806;SDS011;9531;52.030;4.380;2022-07-10T04:30:22;131.60;;;11.70;;
18806;SDS011;9531;52.030;4.380;2022-07-10T04:32:50;98.10;;;12.27;;
18806;SDS011;9531;52.030;4.380;2022-07-10T04:35:17;98.15;;;9.55;;
18806;SDS011;9531;52.030;4.380;2022-07-10T04:37:44;130.23;;;15.57;;
18806;SDS011;9531;52.030;4.380;2022-07-10T04:40:11;97.80;;;6.72;;
18806;SDS011;9531;52.030;4.380;2022-07-10T04:42:39;125.82;;;14.82;;
18806;SDS011;9531;52.030;4.380;2022-07-10T04:45:15;97.20;;;12.88;;
18806;SDS011;9531;52.030;4.380;2022-07-10T04:47:47;117.03;;;13.18;;
18806;SDS011;9531;52.030;4.380;2022-07-10T04:50:14;100.03;;;10.45;;
18806;SDS011;9531;52.030;4.380;2022-07-10T04:52:42;97.38;;;12.57;;
18806;SDS011;9531;52.030;4.380;2022-07-10T04:55:10;108.88;;;12.95;;
18806;SDS011;9531;52.030;4.380;2022-07-10T04:57:38;98.13;;;7.78;;
18806;SDS011;9531;52.030;4.380;2022-07-10T05:00:10;102.07;;;11.27;;
18806;SDS011;9531;52.030;4.380;2022-07-10T05:02:37;88.65;;;6.30;;
18806;SDS011;9531;52.030;4.380;2022-07-10T05:05:06;123.45;;;11.75;;
18806;SDS011;9531;52.030;4.380;2022-07-10T05:07:33;97.90;;;11.23;;
18806;SDS011;9531;52.030;4.380;2022-07-10T05:10:01;169.20;;;22.58;;
18806;SDS011;9531;52.030;4.380;2022-07-10T05:12:28;104.32;;;9.80;;
18806;SDS011;9531;52.030;4.380;2022-07-10T05:15:01;131.13;;;10.70;;
18806;SDS011;9531;52.030;4.380;2022-07-10T05:17:29;95.55;;;14.50;;
18806;SDS011;9531;52.030;4.380;2022-07-10T05:19:57;104.72;;;16.80;;
18806;SDS011;9531;52.030;4.380;2022-07-10T05:22:25;98.50;;;11.10;;
18806;SDS011;9531;52.030;4.380;2022-07-10T05:24:55;101.80;;;8.48;;
18806;SDS011;9531;52.030;4.380;2022-07-10T05:27:22;99.75;;;9.70;;
18806;SDS011;9531;52.030;4.380;2022-07-10T05:29:50;109.82;;;12.18;;
18806;SDS011;9531;52.030;4.380;2022-07-10T05:32:17;97.70;;;12.32;;
18806;SDS011;9531;52.030;4.380;2022-07-10T05:34:51;107.28;;;12.20;;
18806;SDS011;9531;52.030;4.380;2022-07-10T05:37:18;107.40;;;11.25;;
18806;SDS011;9531;52.030;4.380;2022-07-10T05:39:46;123.10;;;10.65;;
18806;SDS011;9531;52.030;4.380;2022-07-10T05:42:15;432.52;;;50.92;;
18806;SDS011;9531;52.030;4.380;2022-07-10T05:44:42;102.47;;;11.25;;
18806;SDS011;9531;52.030;4.380;2022-07-10T05:47:11;103.95;;;12.43;;
18806;SDS011;9531;52.030;4.380;2022-07-10T05:49:39;97.45;;;11.98;;
18806;SDS011;9531;52.030;4.380;2022-07-10T05:52:06;102.97;;;15.38;;
18806;SDS011;9531;52.030;4.380;2022-07-10T05:54:34;98.53;;;13.60;;
18806;SDS011;9531;52.030;4.380;2022-07-10T05:57:03;102.72;;;11.23;;
18806;SDS011;9531;52.030;4.380;2022-07-10T05:59:32;104.15;;;8.95;;
18806;SDS011;9531;52.030;4.380;2022-07-10T06:02:00;98.85;;;8.38;;
18806;SDS011;9531;52.030;4.380;2022-07-10T06:04:28;98.78;;;8.88;;
18806;SDS011;9531;52.030;4.380;2022-07-10T06:06:55;100.50;;;11.15;;
18806;SDS011;9531;52.030;4.380;2022-07-10T06:09:23;93.32;;;7.25;;
18806;SDS011;9531;52.030;4.380;2022-07-10T06:11:50;115.72;;;9.95;;
18806;SDS011;9531;52.030;4.380;2022-07-10T06:14:20;101.85;;;12.18;;
18806;SDS011;9531;52.030;4.380;2022-07-10T06:16:49;140.38;;;9.23;;
18806;SDS011;9531;52.030;4.380;2022-07-10T06:19:16;135.35;;;17.15;;
18806;SDS011;9531;52.030;4.380;2022-07-10T06:21:44;103.60;;;11.57;;
18806;SDS011;9531;52.030;4.380;2022-07-10T06:24:17;95.68;;;8.82;;
18806;SDS011;9531;52.030;4.380;2022-07-10T06:26:45;99.38;;;10.30;;
18806;SDS011;9531;52.030;4.380;2022-07-10T06:29:13;100.15;;;10.02;;
18806;SDS011;9531;52.030;4.380;2022-07-10T06:31:42;103.75;;;8.25;;
18806;SDS011;9531;52.030;4.380;2022-07-10T06:34:16;103.55;;;9.90;;
18806;SDS011;9531;52.030;4.380;2022-07-10T06:37:02;102.40;;;6.80;;
18806;SDS011;9531;52.030;4.380;2022-07-10T06:39:31;100.55;;;9.27;;
18806;SDS011;9531;52.030;4.380;2022-07-10T06:42:00;101.72;;;8.68;;
18806;SDS011;9531;52.030;4.380;2022-07-10T06:44:27;101.30;;;12.68;;
18806;SDS011;9531;52.030;4.380;2022-07-10T06:46:56;119.47;;;12.05;;
18806;SDS011;9531;52.030;4.380;2022-07-10T06:49:41;108.20;;;8.13;;
18806;SDS011;9531;52.030;4.380;2022-07-10T06:52:09;102.30;;;10.85;;
18806;SDS011;9531;52.030;4.380;2022-07-10T06:54:37;105.35;;;8.82;;
18806;SDS011;9531;52.030;4.380;2022-07-10T06:57:06;141.82;;;13.40;;
18806;SDS011;9531;52.030;4.380;2022-07-10T06:59:33;113.22;;;14.60;;
18806;SDS011;9531;52.030;4.380;2022-07-10T07:02:02;115.43;;;10.90;;
18806;SDS011;9531;52.030;4.380;2022-07-10T07:04:30;187.05;;;26.88;;
18806;SDS011;9531;52.030;4.380;2022-07-10T07:06:57;188.75;;;28.38;;
18806;SDS011;9531;52.030;4.380;2022-07-10T07:09:24;259.65;;;30.92;;
18806;SDS011;9531;52.030;4.380;2022-07-10T07:11:51;334.20;;;47.25;;
18806;SDS011;9531;52.030;4.380;2022-07-10T07:14:21;236.27;;;34.03;;
18806;SDS011;9531;52.030;4.380;2022-07-10T07:16:48;275.05;;;41.65;;
18806;SDS011;9531;52.030;4.380;2022-07-10T07:19:30;343.83;;;56.38;;
18806;SDS011;9531;52.030;4.380;2022-07-10T07:21:57;522.22;;;74.55;;
18806;SDS011;9531;52.030;4.380;2022-07-10T07:24:44;369.33;;;41.28;;
18806;SDS011;9531;52.030;4.380;2022-07-10T07:27:13;221.65;;;47.25;;
18806;SDS011;9531;52.030;4.380;2022-07-10T07:29:40;601.13;;;95.80;;
18806;SDS011;9531;52.030;4.380;2022-07-10T07:32:07;452.13;;;84.88;;
18806;SDS011;9531;52.030;4.380;2022-07-10T07:34:36;1102.63;;;143.32;;
18806;SDS011;9531;52.030;4.380;2022-07-10T07:37:04;1469.38;;;183.35;;
18806;SDS011;9531;52.030;4.380;2022-07-10T07:39:32;1238.55;;;179.18;;
18806;SDS011;9531;52.030;4.380;2022-07-10T07:41:59;1419.82;;;188.40;;
18806;SDS011;9531;52.030;4.380;2022-07-10T07:44:26;1972.47;;;257.42;;
18806;SDS011;9531;52.030;4.380;2022-07-10T07:46:56;1999.90;;;290.95;;
18806;SDS011;9531;52.030;4.380;2022-07-10T07:49:23;1821.65;;;253.82;;
18806;SDS011;9531;52.030;4.380;2022-07-10T07:51:52;1999.90;;;384.30;;
18806;SDS011;9531;52.030;4.380;2022-07-10T07:54:19;1999.90;;;333.52;;
18806;SDS011;9531;52.030;4.380;2022-07-10T07:56:46;1904.05;;;263.92;;
18806;SDS011;9531;52.030;4.380;2022-07-10T07:59:13;1999.90;;;485.05;;
18806;SDS011;9531;52.030;4.380;2022-07-10T08:01:41;1999.90;;;467.05;;
18806;SDS011;9531;52.030;4.380;2022-07-10T08:04:08;1999.90;;;494.88;;
18806;SDS011;9531;52.030;4.380;2022-07-10T08:06:36;1845.30;;;234.88;;
18806;SDS011;9531;52.030;4.380;2022-07-10T08:09:04;1999.90;;;442.60;;
18806;SDS011;9531;52.030;4.380;2022-07-10T08:11:32;1777.32;;;249.00;;
18806;SDS011;9531;52.030;4.380;2022-07-10T08:13:59;1999.90;;;371.90;;
18806;SDS011;9531;52.030;4.380;2022-07-10T08:16:28;1999.90;;;606.10;;
18806;SDS011;9531;52.030;4.380;2022-07-10T08:18:56;1999.90;;;393.10;;
18806;SDS011;9531;52.030;4.380;2022-07-10T08:21:23;1999.90;;;999.90;;
18806;SDS011;9531;52.030;4.380;2022-07-10T08:23:52;1999.90;;;847.72;;
18806;SDS011;9531;52.030;4.380;2022-07-10T08:26:21;1999.90;;;830.53;;
18806;SDS011;9531;52.030;4.380;2022-07-10T08:28:49;1999.90;;;770.40;;
18806;SDS011;9531;52.030;4.380;2022-07-10T08:31:16;1999.90;;;853.22;;
18806;SDS011;9531;52.030;4.380;2022-07-10T08:33:45;1999.90;;;942.28;;
18806;SDS011;9531;52.030;4.380;2022-07-10T08:36:13;1999.90;;;851.92;;
18806;SDS011;9531;52.030;4.380;2022-07-10T08:38:41;1999.90;;;916.25;;
18806;SDS011;9531;52.030;4.380;2022-07-10T08:41:08;1999.90;;;999.90;;
18806;SDS011;9531;52.030;4.380;2022-07-10T08:43:41;1999.90;;;947.80;;
18806;SDS011;9531;52.030;4.380;2022-07-10T08:46:09;1999.90;;;927.75;;
18806;SDS011;9531;52.030;4.380;2022-07-10T08:48:39;1999.90;;;906.45;;
18806;SDS011;9531;52.030;4.380;2022-07-10T08:51:07;1999.90;;;938.42;;
18806;SDS011;9531;52.030;4.380;2022-07-10T08:53:40;1999.90;;;936.55;;
18806;SDS011;9531;52.030;4.380;2022-07-10T08:56:07;1999.90;;;999.90;;
18806;SDS011;9531;52.030;4.380;2022-07-10T08:58:35;1999.90;;;984.15;;
18806;SDS011;9531;52.030;4.380;2022-07-10T09:01:03;1999.90;;;960.03;;
18806;SDS011;9531;52.030;4.380;2022-07-10T09:03:31;1999.90;;;986.53;;
18806;SDS011;9531;52.030;4.380;2022-07-10T09:05:58;1999.90;;;938.10;;
18806;SDS011;9531;52.030;4.380;2022-07-10T09:08:26;1999.90;;;957.40;;
18806;SDS011;9531;52.030;4.380;2022-07-10T09:13:48;1999.90;;;755.50;;
18806;SDS011;9531;52.030;4.380;2022-07-10T09:16:21;1999.90;;;791.80;;
18806;SDS011;9531;52.030;4.380;2022-07-10T09:18:50;1999.90;;;857.63;;
18806;SDS011;9531;52.030;4.380;2022-07-10T09:21:17;1999.90;;;900.25;;
18806;SDS011;9531;52.030;4.380;2022-07-10T09:23:44;1999.90;;;965.85;;
18806;SDS011;9531;52.030;4.380;2022-07-10T09:26:12;1999.90;;;999.90;;
18806;SDS011;9531;52.030;4.380;2022-07-10T09:28:40;1999.90;;;999.90;;
18806;SDS011;9531;52.030;4.380;2022-07-10T09:31:07;1999.90;;;990.85;;
18806;SDS011;9531;52.030;4.380;2022-07-10T09:33:36;1999.90;;;953.28;;
18806;SDS011;9531;52.030;4.380;2022-07-10T09:36:04;1999.90;;;897.83;;
18806;SDS011;9531;52.030;4.380;2022-07-10T09:38:48;1999.90;;;999.90;;
18806;SDS011;9531;52.030;4.380;2022-07-10T09:41:18;1999.90;;;914.92;;
18806;SDS011;9531;52.030;4.380;2022-07-10T09:43:46;1999.90;;;925.08;;
18806;SDS011;9531;52.030;4.380;2022-07-10T09:46:14;1999.90;;;951.40;;
18806;SDS011;9531;52.030;4.380;2022-07-10T09:48:43;1999.90;;;936.60;;
18806;SDS011;9531;52.030;4.380;2022-07-10T09:51:10;1999.90;;;878.67;;
18806;SDS011;9531;52.030;4.380;2022-07-10T09:53:38;1999.90;;;922.20;;
18806;SDS011;9531;52.030;4.380;2022-07-10T09:56:07;1999.90;;;825.58;;
18806;SDS011;9531;52.030;4.380;2022-07-10T09:58:35;1999.90;;;793.72;;
18806;SDS011;9531;52.030;4.380;2022-07-10T10:01:03;1999.90;;;742.25;;
18806;SDS011;9531;52.030;4.380;2022-07-10T10:03:34;1999.90;;;918.00;;
18806;SDS011;9531;52.030;4.380;2022-07-10T10:06:04;1999.90;;;740.90;;
18806;SDS011;9531;52.030;4.380;2022-07-10T10:08:37;1999.90;;;999.90;;
18806;SDS011;9531;52.030;4.380;2022-07-10T10:11:05;1999.90;;;890.38;;
18806;SDS011;9531;52.030;4.380;2022-07-10T10:13:35;1999.90;;;932.65;;
18806;SDS011;9531;52.030;4.380;2022-07-10T10:16:02;1999.90;;;853.88;;
18806;SDS011;9531;52.030;4.380;2022-07-10T10:18:32;1999.90;;;896.65;;
18806;SDS011;9531;52.030;4.380;2022-07-10T10:20:59;1999.90;;;918.22;;
18806;SDS011;9531;52.030;4.380;2022-07-10T10:23:29;1999.90;;;951.28;;
18806;SDS011;9531;52.030;4.380;2022-07-10T10:25:56;1999.90;;;902.17;;
18806;SDS011;9531;52.030;4.380;2022-07-10T10:28:25;1999.90;;;931.95;;
18806;SDS011;9531;52.030;4.380;2022-07-10T10:30:54;1999.90;;;931.35;;
18806;SDS011;9531;52.030;4.380;2022-07-10T10:36:14;1999.90;;;901.33;;
18806;SDS011;9531;52.030;4.380;2022-07-10T10:39:03;1999.90;;;783.20;;
18806;SDS011;9531;52.030;4.380;2022-07-10T10:41:36;1999.90;;;927.97;;
18806;SDS011;9531;52.030;4.380;2022-07-10T10:44:23;1999.90;;;938.38;;
18806;SDS011;9531;52.030;4.380;2022-07-10T10:47:01;1999.90;;;919.63;;
18806;SDS011;9531;52.030;4.380;2022-07-10T10:52:29;1999.90;;;910.80;;
18806;SDS011;9531;52.030;4.380;2022-07-10T10:55:08;1999.90;;;986.15;;
18806;SDS011;9531;52.030;4.380;2022-07-10T10:57:37;1999.90;;;885.58;;
18806;SDS011;9531;52.030;4.380;2022-07-10T11:03:12;1999.90;;;932.60;;
18806;SDS011;9531;52.030;4.380;2022-07-10T11:05:41;1999.90;;;902.00;;
18806;SDS011;9531;52.030;4.380;2022-07-10T11:08:09;1999.90;;;980.53;;
18806;SDS011;9531;52.030;4.380;2022-07-10T11:10:38;1999.90;;;989.17;;
18806;SDS011;9531;52.030;4.380;2022-07-10T11:13:06;1999.90;;;996.80;;
18806;SDS011;9531;52.030;4.380;2022-07-10T11:15:35;1999.90;;;998.42;;
18806;SDS011;9531;52.030;4.380;2022-07-10T11:18:03;1999.90;;;984.42;;
18806;SDS011;9531;52.030;4.380;2022-07-10T11:20:31;1999.90;;;829.80;;
18806;SDS011;9531;52.030;4.380;2022-07-10T11:23:13;1999.90;;;981.45;;
18806;SDS011;9531;52.030;4.380;2022-07-10T11:25:48;1999.90;;;946.00;;
18806;SDS011;9531;52.030;4.380;2022-07-10T11:28:27;1999.90;;;998.92;;
18806;SDS011;9531;52.030;4.380;2022-07-10T11:30:56;1999.90;;;979.72;;
18806;SDS011;9531;52.030;4.380;2022-07-10T11:33:24;1999.90;;;981.17;;
18806;SDS011;9531;52.030;4.380;2022-07-10T11:35:54;1999.90;;;999.90;;
18806;SDS011;9531;52.030;4.380;2022-07-10T11:38:23;1999.90;;;997.47;;
18806;SDS011;9531;52.030;4.380;2022-07-10T11:40:52;1999.90;;;971.90;;
18806;SDS011;9531;52.030;4.380;2022-07-10T11:43:20;1999.90;;;987.10;;
18806;SDS011;9531;52.030;4.380;2022-07-10T11:45:49;1999.90;;;977.88;;
18806;SDS011;9531;52.030;4.380;2022-07-10T11:48:17;1999.90;;;870.08;;
18806;SDS011;9531;52.030;4.380;2022-07-10T11:50:46;1999.90;;;734.30;;
18806;SDS011;9531;52.030;4.380;2022-07-10T11:53:24;1999.90;;;931.65;;
18806;SDS011;9531;52.030;4.380;2022-07-10T11:55:55;1999.90;;;999.90;;
18806;SDS011;9531;52.030;4.380;2022-07-10T11:58:22;1999.90;;;999.90;;
18806;SDS011;9531;52.030;4.380;2022-07-10T12:00:59;1999.90;;;999.90;;
18806;SDS011;9531;52.030;4.380;2022-07-10T12:03:27;1999.90;;;999.90;;
18806;SDS011;9531;52.030;4.380;2022-07-10T12:05:55;1999.90;;;961.42;;
18806;SDS011;9531;52.030;4.380;2022-07-10T12:08:23;1999.90;;;590.83;;
18806;SDS011;9531;52.030;4.380;2022-07-10T12:10:51;1999.90;;;952.42;;
18806;SDS011;9531;52.030;4.380;2022-07-10T12:13:20;1999.90;;;999.90;;
18806;SDS011;9531;52.030;4.380;2022-07-10T12:15:48;1999.90;;;910.60;;
18806;SDS011;9531;52.030;4.380;2022-07-10T12:18:16;1999.90;;;996.83;;
18806;SDS011;9531;52.030;4.380;2022-07-10T12:20:44;1999.90;;;768.45;;
18806;SDS011;9531;52.030;4.380;2022-07-10T12:23:13;1999.90;;;999.90;;
18806;SDS011;9531;52.030;4.380;2022-07-10T12:25:41;1999.90;;;998.35;;
18806;SDS011;9531;52.030;4.380;2022-07-10T12:28:09;1999.90;;;995.20;;
18806;SDS011;9531;52.030;4.380;2022-07-10T12:30:39;1999.90;;;999.90;;
18806;SDS011;9531;52.030;4.380;2022-07-10T12:33:09;1999.90;;;999.90;;
18806;SDS011;9531;52.030;4.380;2022-07-10T12:35:51;1999.90;;;998.78;;
18806;SDS011;9531;52.030;4.380;2022-07-10T12:38:19;1999.90;;;999.90;;
18806;SDS011;9531;52.030;4.380;2022-07-10T12:40:47;1999.90;;;999.90;;
18806;SDS011;9531;52.030;4.380;2022-07-10T12:43:24;1999.90;;;999.90;;
18806;SDS011;9531;52.030;4.380;2022-07-10T12:46:09;1999.90;;;869.28;;
18806;SDS011;9531;52.030;4.380;2022-07-10T12:48:37;1999.90;;;968.42;;
18806;SDS011;9531;52.030;4.380;2022-07-10T12:51:26;1999.90;;;999.83;;
18806;SDS011;9531;52.030;4.380;2022-07-10T12:53:57;1999.90;;;999.90;;
18806;SDS011;9531;52.030;4.380;2022-07-10T12:56:29;1999.90;;;999.90;;
18806;SDS011;9531;52.030;4.380;2022-07-10T12:58:57;1999.90;;;649.20;;
18806;SDS011;9531;52.030;4.380;2022-07-10T13:01:27;1999.90;;;998.58;;
18806;SDS011;9531;52.030;4.380;2022-07-10T13:03:59;1999.90;;;999.40;;
18806;SDS011;9531;52.030;4.380;2022-07-10T13:06:27;1999.90;;;999.90;;
18806;SDS011;9531;52.030;4.380;2022-07-10T13:08:54;1999.90;;;833.22;;
18806;SDS011;9531;52.030;4.380;2022-07-10T13:11:23;1999.90;;;842.25;;
18806;SDS011;9531;52.030;4.380;2022-07-10T13:13:50;1999.90;;;984.20;;
18806;SDS011;9531;52.030;4.380;2022-07-10T13:16:19;1999.90;;;999.90;;
18806;SDS011;9531;52.030;4.380;2022-07-10T13:18:48;1999.90;;;999.90;;
18806;SDS011;9531;52.030;4.380;2022-07-10T13:21:17;1999.90;;;999.90;;
18806;SDS011;9531;52.030;4.380;2022-07-10T13:23:44;1999.90;;;999.90;;
18806;SDS011;9531;52.030;4.380;2022-07-10T13:26:13;1999.90;;;937.90;;
18806;SDS011;9531;52.030;4.380;2022-07-10T13:28:40;1999.90;;;783.63;;
18806;SDS011;9531;52.030;4.380;2022-07-10T13:31:08;1999.90;;;912.72;;
18806;SDS011;9531;52.030;4.380;2022-07-10T13:33:35;1999.90;;;999.90;;
18806;SDS011;9531;52.030;4.380;2022-07-10T13:36:04;1999.90;;;999.90;;
18806;SDS011;9531;52.030;4.380;2022-07-10T13:38:35;1999.90;;;999.90;;
18806;SDS011;9531;52.030;4.380;2022-07-10T13:41:02;1999.90;;;999.90;;
18806;SDS011;9531;52.030;4.380;2022-07-10T13:43:30;1999.90;;;999.90;;
18806;SDS011;9531;52.030;4.380;2022-07-10T13:45:57;1999.90;;;999.90;;
18806;SDS011;9531;52.030;4.380;2022-07-10T13:48:25;1999.90;;;999.90;;
18806;SDS011;9531;52.030;4.380;2022-07-10T13:50:54;1579.68;;;216.63;;
18806;SDS011;9531;52.030;4.380;2022-07-10T13:53:23;669.58;;;269.95;;
18806;SDS011;9531;52.030;4.380;2022-07-10T13:55:50;1999.90;;;926.78;;
18806;SDS011;9531;52.030;4.380;2022-07-10T13:58:18;1999.90;;;862.30;;
18806;SDS011;9531;52.030;4.380;2022-07-10T14:00:45;1999.90;;;968.78;;
18806;SDS011;9531;52.030;4.380;2022-07-10T14:03:13;1999.90;;;998.55;;
18806;SDS011;9531;52.030;4.380;2022-07-10T14:05:40;1999.90;;;586.65;;
18806;SDS011;9531;52.030;4.380;2022-07-10T14:08:07;1999.90;;;957.20;;
18806;SDS011;9531;52.030;4.380;2022-07-10T14:10:36;1999.90;;;516.55;;
18806;SDS011;9531;52.030;4.380;2022-07-10T14:13:03;808.45;;;106.13;;
18806;SDS011;9531;52.030;4.380;2022-07-10T14:15:33;1156.78;;;276.65;;
18806;SDS011;9531;52.030;4.380;2022-07-10T14:18:00;903.95;;;343.55;;
18806;SDS011;9531;52.030;4.380;2022-07-10T14:20:28;966.20;;;354.25;;
18806;SDS011;9531;52.030;4.380;2022-07-10T14:23:16;321.77;;;104.72;;
18806;SDS011;9531;52.030;4.380;2022-07-10T14:25:45;287.13;;;140.70;;
18806;SDS011;9531;52.030;4.380;2022-07-10T14:28:13;756.45;;;293.70;;
18806;SDS011;9531;52.030;4.380;2022-07-10T14:30:41;227.88;;;101.65;;
18806;SDS011;9531;52.030;4.380;2022-07-10T14:33:09;140.63;;;44.08;;
18806;SDS011;9531;52.030;4.380;2022-07-10T14:35:36;60.85;;;51.10;;
18806;SDS011;9531;52.030;4.380;2022-07-10T14:38:04;29.67;;;27.05;;
18806;SDS011;9531;52.030;4.380;2022-07-10T14:40:31;220.15;;;116.45;;
18806;SDS011;9531;52.030;4.380;2022-07-10T14:43:00;1999.90;;;567.03;;